createdAt,value
2023-03-19T00:01:05.022Z,100456.40
2023-03-19T00:03:42.895Z,100451.42
2023-03-19T00:06:11.029Z,100456.34
2023-03-19T00:08:39.084Z,100455.47
2023-03-19T00:11:11.722Z,100454.92
2023-03-19T00:13:40.873Z,100450.92
2023-03-19T00:16:09.098Z,100452.11
2023-03-19T00:18:37.434Z,100450.89
2023-03-19T00:21:06.149Z,100445.89
2023-03-19T00:23:34.939Z,100448.09
2023-03-19T00:26:04.065Z,100446.88
2023-03-19T00:28:32.361Z,100444.96
2023-03-19T00:31:10.706Z,100441.84
2023-03-19T00:33:39.265Z,100442.16
2023-03-19T00:36:08.160Z,100441.58
2023-03-19T00:38:36.777Z,100443.55
2023-03-19T00:41:06.265Z,100439.73
2023-03-19T00:43:34.915Z,100437.78
2023-03-19T00:46:03.521Z,100439.10
2023-03-19T00:48:32.058Z,100439.70
2023-03-19T00:51:09.598Z,100441.52
2023-03-19T00:53:42.987Z,100438.02
2023-03-19T00:56:13.648Z,100441.90
2023-03-19T00:58:42.129Z,100443.17
2023-03-19T01:01:13.047Z,100441.34
2023-03-19T01:03:42.008Z,100444.04
2023-03-19T01:06:10.393Z,100440.73
2023-03-19T01:08:38.893Z,100439.83
2023-03-19T01:11:09.885Z,100439.96
2023-03-19T01:13:38.922Z,100435.30
2023-03-19T01:16:07.579Z,100438.03
2023-03-19T01:18:35.879Z,100439.34
2023-03-19T01:21:05.166Z,100443.08
2023-03-19T01:23:38.779Z,100442.70
2023-03-19T01:26:07.399Z,100444.03
2023-03-19T01:28:35.979Z,100449.25
2023-03-19T01:31:08.416Z,100451.95
2023-03-19T01:34:06.624Z,100455.67
2023-03-19T01:36:49.640Z,100457.18
2023-03-19T01:39:24.089Z,100456.96
2023-03-19T01:41:52.765Z,100455.42
2023-03-19T01:44:37.599Z,100455.17
2023-03-19T01:47:36.178Z,100451.13
2023-03-19T01:50:43.776Z,100451.10
2023-03-19T01:53:32.738Z,100453.76
2023-03-19T01:56:20.274Z,100454.20
2023-03-19T01:59:27.949Z,100451.88
2023-03-19T02:02:31.717Z,100451.61
2023-03-19T02:05:10.865Z,100449.80
2023-03-19T02:07:42.637Z,100447.48
2023-03-19T02:10:15.161Z,100448.40
2023-03-19T02:12:45.009Z,100446.25
2023-03-19T02:15:13.254Z,100447.38
2023-03-19T02:17:42.808Z,100446.81
2023-03-19T02:20:21.408Z,100440.54
2023-03-19T02:23:06.017Z,100442.35
2023-03-19T02:25:46.281Z,100439.40
2023-03-19T02:28:17.514Z,100440.84
2023-03-19T02:30:46.517Z,100443.87
2023-03-19T02:36:17.405Z,100445.42
2023-03-19T02:38:48.113Z,100446.20
2023-03-19T02:41:16.234Z,100452.33
2023-03-19T02:43:44.449Z,100453.48
2023-03-19T02:46:13.928Z,100455.00
2023-03-19T02:48:42.461Z,100455.48
2023-03-19T02:51:10.768Z,100455.09
2023-03-19T02:53:39.125Z,100458.28
2023-03-19T02:56:07.570Z,100457.03
2023-03-19T02:58:35.797Z,100457.79
2023-03-19T03:01:04.538Z,100457.90
2023-03-19T03:03:32.953Z,100459.03
2023-03-19T03:06:01.123Z,100460.48
2023-03-19T03:08:29.295Z,100456.83
2023-03-19T03:10:57.758Z,100455.55
2023-03-19T03:13:26.027Z,100457.16
2023-03-19T03:15:54.123Z,100460.67
2023-03-19T03:18:22.609Z,100464.20
2023-03-19T03:20:50.938Z,100463.13
2023-03-19T03:23:20.506Z,100462.77
2023-03-19T03:25:52.968Z,100458.74
2023-03-19T03:28:21.182Z,100456.66
2023-03-19T03:30:49.290Z,100448.67
2023-03-19T03:33:17.523Z,100455.55
2023-03-19T03:35:46.485Z,100453.61
2023-03-19T03:38:14.740Z,100451.33
2023-03-19T03:40:43.572Z,100449.89
2023-03-19T03:43:11.641Z,100451.37
2023-03-19T03:45:39.837Z,100449.09
2023-03-19T03:48:09.556Z,100445.09
2023-03-19T03:50:37.699Z,100447.80
2023-03-19T03:53:08.902Z,100445.17
2023-03-19T03:55:37.405Z,100446.12
2023-03-19T03:58:06.561Z,100445.36
2023-03-19T04:05:20.501Z,100442.16
2023-03-19T04:07:48.780Z,100441.43
2023-03-19T04:10:17.076Z,100441.90
2023-03-19T04:12:46.092Z,100438.75
2023-03-19T04:15:14.558Z,100435.61
2023-03-19T04:17:44.426Z,100438.63
2023-03-19T04:20:14.403Z,100437.70
2023-03-19T04:22:42.691Z,100439.00
2023-03-19T04:25:11.406Z,100442.35
2023-03-19T04:27:39.860Z,100438.19
2023-03-19T04:34:37.600Z,100435.75
2023-03-19T04:37:06.349Z,100436.13
2023-03-19T04:39:36.160Z,100436.89
2023-03-19T04:42:04.634Z,100437.65
2023-03-19T04:44:37.743Z,100439.96
2023-03-19T04:47:06.078Z,100437.48
2023-03-19T04:49:42.762Z,100432.08
2023-03-19T04:52:11.032Z,100434.58
2023-03-19T04:54:39.194Z,100434.98
2023-03-19T04:57:07.896Z,100435.56
2023-03-19T04:59:38.569Z,100436.84
2023-03-19T05:02:07.112Z,100444.71
2023-03-19T05:04:37.517Z,100441.48
2023-03-19T05:07:08.550Z,100441.05
2023-03-19T05:09:37.974Z,100446.11
2023-03-19T05:12:06.939Z,100447.83
2023-03-19T05:14:39.780Z,100448.57
2023-03-19T05:17:15.726Z,100459.38
2023-03-19T05:20:07.301Z,100457.63
2023-03-19T05:22:35.680Z,100456.94
2023-03-19T05:25:04.296Z,100459.20
2023-03-19T05:27:33.067Z,100456.80
2023-03-19T05:30:11.039Z,100452.36
2023-03-19T05:32:41.898Z,100449.13
2023-03-19T05:35:15.506Z,100450.52
2023-03-19T05:37:43.919Z,100449.04
2023-03-19T05:40:13.404Z,100446.90
2023-03-19T05:42:42.887Z,100449.20
2023-03-19T05:45:12.784Z,100445.83
2023-03-19T05:47:50.340Z,100439.73
2023-03-19T05:50:19.054Z,100439.96
2023-03-19T05:53:05.412Z,100435.91
2023-03-19T05:55:34.836Z,100442.41
2023-03-19T05:58:07.819Z,100435.45
2023-03-19T06:00:36.919Z,100438.33
2023-03-19T06:03:06.671Z,100440.16
2023-03-19T06:05:42.992Z,100441.09
2023-03-19T06:08:30.558Z,100435.96
2023-03-19T06:11:19.227Z,100432.27
2023-03-19T06:13:51.867Z,100433.67
2023-03-19T06:16:21.074Z,100429.37
2023-03-19T06:18:53.985Z,100431.68
2023-03-19T06:21:22.290Z,100435.67
2023-03-19T06:23:51.511Z,100432.92
2023-03-19T06:26:26.566Z,100428.34
2023-03-19T06:28:57.559Z,100428.08
2023-03-19T06:31:27.696Z,100430.72
2023-03-19T06:34:01.670Z,100429.50
2023-03-19T06:36:39.886Z,100430.67
2023-03-19T06:39:10.528Z,100432.01
2023-03-19T06:41:38.749Z,100432.55
2023-03-19T06:44:13.494Z,100434.43
2023-03-19T06:46:42.279Z,100432.48
2023-03-19T06:49:10.672Z,100433.67
2023-03-19T06:51:38.772Z,100438.79
2023-03-19T06:54:07.282Z,100438.97
2023-03-19T06:56:35.513Z,100439.65
2023-03-19T06:59:04.148Z,100444.52
2023-03-19T07:01:32.928Z,100443.13
2023-03-19T07:04:01.098Z,100444.98
2023-03-19T07:06:30.223Z,100443.81
2023-03-19T07:09:16.460Z,100447.96
2023-03-19T07:11:51.048Z,100453.71
2023-03-19T07:14:19.472Z,100453.63
2023-03-19T07:16:47.641Z,100453.48
2023-03-19T07:19:16.428Z,100446.34
2023-03-19T07:21:44.819Z,100448.69
2023-03-19T07:24:13.030Z,100445.51
2023-03-19T07:26:42.497Z,100448.81
2023-03-19T07:29:11.379Z,100445.18
2023-03-19T07:31:39.946Z,100445.67
2023-03-19T07:34:08.545Z,100448.23
2023-03-19T07:36:37.052Z,100449.29
2023-03-19T07:39:05.579Z,100451.89
2023-03-19T07:41:33.619Z,100443.43
2023-03-19T07:44:03.014Z,100445.08
2023-03-19T07:46:32.540Z,100447.46
2023-03-19T07:49:01.076Z,100450.48
2023-03-19T07:51:29.415Z,100451.30
2023-03-19T07:53:57.472Z,100447.89
2023-03-19T07:56:25.955Z,100448.84
2023-03-19T07:58:54.401Z,100446.29
2023-03-19T08:01:22.513Z,100443.64
2023-03-19T08:03:51.151Z,100444.81
2023-03-19T08:06:22.039Z,100443.67
2023-03-19T08:08:50.728Z,100444.52
2023-03-19T08:11:19.726Z,100440.31
2023-03-19T08:13:48.050Z,100442.79
2023-03-19T08:16:16.006Z,100441.29
2023-03-19T08:18:43.992Z,100442.30
2023-03-19T08:21:12.330Z,100442.54
2023-03-19T08:23:40.477Z,100443.92
2023-03-19T08:26:08.426Z,100444.60
2023-03-19T08:28:37.454Z,100446.38
2023-03-19T08:31:13.124Z,100442.98
2023-03-19T08:33:41.653Z,100442.77
2023-03-19T08:36:12.252Z,100443.27
2023-03-19T08:38:40.558Z,100442.26
2023-03-19T08:41:09.751Z,100441.82
2023-03-19T08:43:37.897Z,100440.77
2023-03-19T08:46:06.646Z,100438.38
2023-03-19T08:48:35.979Z,100434.81
2023-03-19T08:51:04.227Z,100433.65
2023-03-19T08:53:33.139Z,100433.29
2023-03-19T08:56:02.222Z,100431.77
2023-03-19T08:58:30.950Z,100432.09
2023-03-19T09:01:08.900Z,100433.98
2023-03-19T09:03:37.451Z,100432.16
2023-03-19T09:06:07.203Z,100433.64
2023-03-19T09:08:36.293Z,100436.79
2023-03-19T09:11:05.928Z,100437.01
2023-03-19T09:13:34.571Z,100436.49
2023-03-19T09:16:02.835Z,100435.98
2023-03-19T09:18:31.498Z,100433.57
2023-03-19T09:20:59.980Z,100434.15
2023-03-19T09:23:28.589Z,100437.07
2023-03-19T09:25:57.072Z,100433.77
2023-03-19T09:28:25.760Z,100435.50
2023-03-19T09:30:54.434Z,100435.23
2023-03-19T09:33:22.791Z,100437.27
2023-03-19T09:35:53.867Z,100433.36
2023-03-19T09:38:24.169Z,100427.54
2023-03-19T09:40:59.737Z,100427.46
2023-03-19T09:43:47.221Z,100423.09
2023-03-19T09:46:23.827Z,100417.23
2023-03-19T09:49:03.195Z,100414.90
2023-03-19T09:51:43.694Z,100413.12
2023-03-19T09:54:39.250Z,100417.48
2023-03-19T09:57:10.036Z,100410.15
2023-03-19T09:59:40.794Z,100409.73
2023-03-19T10:02:41.955Z,100409.15
2023-03-19T10:05:25.963Z,100410.29
2023-03-19T10:08:19.811Z,100411.05
2023-03-19T10:10:56.252Z,100407.31
2023-03-19T10:13:30.413Z,100403.66
2023-03-19T10:16:01.477Z,100408.08
2023-03-19T10:18:36.180Z,100405.95
2023-03-19T10:21:11.985Z,100398.05
2023-03-19T10:23:46.989Z,100401.83
2023-03-19T10:26:21.703Z,100400.73
2023-03-19T10:29:20.751Z,100397.54
2023-03-19T10:32:21.104Z,100396.94
2023-03-19T10:34:53.317Z,100396.63
2023-03-19T10:37:28.036Z,100393.61
2023-03-19T10:40:00.096Z,100394.92
2023-03-19T10:42:49.890Z,100394.09
2023-03-19T10:45:30.119Z,100404.48
2023-03-19T10:47:59.976Z,100408.09
2023-03-19T10:51:01.604Z,100401.13
2023-03-19T10:53:34.751Z,100400.17
2023-03-19T10:56:26.804Z,100406.03
2023-03-19T10:59:07.626Z,100400.48
2023-03-19T11:04:34.630Z,100400.23
2023-03-19T11:07:08.860Z,100396.84
2023-03-19T11:09:38.007Z,100387.02
2023-03-19T11:12:29.524Z,100389.34
2023-03-19T11:14:58.383Z,100387.76
2023-03-19T11:17:28.018Z,100384.71
2023-03-19T11:19:57.926Z,100390.84
2023-03-19T11:22:28.144Z,100381.09
2023-03-19T11:25:13.897Z,100377.75
2023-03-19T11:27:43.673Z,100375.44
2023-03-19T11:30:18.143Z,100375.92
2023-03-19T11:33:04.804Z,100373.16
2023-03-19T11:35:36.079Z,100372.09
2023-03-19T11:38:05.130Z,100366.89
2023-03-19T11:40:52.728Z,100364.13
2023-03-19T11:43:21.162Z,100359.25
2023-03-19T11:45:52.290Z,100351.31
2023-03-19T11:48:35.389Z,100343.79
2023-03-19T11:51:12.624Z,100345.52
2023-03-19T11:53:49.864Z,100348.58
2023-03-19T11:56:23.271Z,100345.84
2023-03-19T11:59:09.860Z,100342.60
2023-03-19T12:01:47.025Z,100348.23
2023-03-19T12:04:21.279Z,100342.13
2023-03-19T12:07:08.110Z,100343.61
2023-03-19T12:09:49.684Z,100345.20
2023-03-19T12:12:17.675Z,100336.61
2023-03-19T12:14:45.776Z,100327.55
2023-03-19T12:17:22.774Z,100325.23
2023-03-19T12:19:50.739Z,100327.48
2023-03-19T12:22:37.106Z,100329.51
2023-03-19T12:25:31.244Z,100328.77
2023-03-19T12:28:05.226Z,100324.06
2023-03-19T12:30:33.418Z,100322.94
2023-03-19T12:33:11.074Z,100328.92
2023-03-19T12:35:39.951Z,100319.09
2023-03-19T12:38:19.606Z,100311.72
2023-03-19T12:40:50.701Z,100308.66
2023-03-19T12:43:22.045Z,100311.04
2023-03-19T12:45:58.194Z,100310.56
2023-03-19T12:48:28.860Z,100311.00
2023-03-19T12:51:00.158Z,100311.05
2023-03-19T12:53:36.338Z,100308.02
2023-03-19T12:56:10.572Z,100305.09
2023-03-19T12:58:47.870Z,100308.69
2023-03-19T13:01:37.549Z,100313.88
2023-03-19T13:04:14.674Z,100307.80
2023-03-19T13:06:52.504Z,100302.71
2023-03-19T13:09:27.073Z,100302.04
2023-03-19T13:12:02.296Z,100301.66
2023-03-19T13:14:45.398Z,100302.13
2023-03-19T13:17:24.120Z,100297.45
2023-03-19T13:19:57.124Z,100298.02
2023-03-19T13:22:27.786Z,100297.63
2023-03-19T13:24:57.381Z,100294.61
2023-03-19T13:27:32.940Z,100294.98
2023-03-19T13:30:07.494Z,100292.00
2023-03-19T13:32:41.501Z,100293.31
2023-03-19T13:35:24.483Z,100294.22
2023-03-19T13:37:57.345Z,100293.69
2023-03-19T13:40:46.138Z,100296.58
2023-03-19T13:43:29.567Z,100293.30
2023-03-19T13:46:11.965Z,100288.02
2023-03-19T13:48:45.855Z,100282.39
2023-03-19T13:51:19.905Z,100283.80
2023-03-19T13:54:12.940Z,100279.81
2023-03-19T13:57:01.356Z,100278.55
2023-03-19T13:59:31.420Z,100282.38
2023-03-19T14:02:00.499Z,100278.93
2023-03-19T14:04:31.146Z,100278.50
2023-03-19T14:07:19.361Z,100280.20
2023-03-19T14:09:51.652Z,100276.33
2023-03-19T14:12:20.239Z,100273.27
2023-03-19T14:15:07.354Z,100270.61
2023-03-19T14:17:42.760Z,100277.64
2023-03-19T14:20:12.568Z,100275.69
2023-03-19T14:22:40.865Z,100275.63
2023-03-19T14:25:18.967Z,100273.19
2023-03-19T14:27:48.289Z,100267.87
2023-03-19T14:30:26.558Z,100269.35
2023-03-19T14:32:55.940Z,100268.62
2023-03-19T14:35:25.468Z,100268.65
2023-03-19T14:37:54.322Z,100271.26
2023-03-19T14:40:23.925Z,100265.23
2023-03-19T14:42:57.992Z,100264.73
2023-03-19T14:45:40.109Z,100268.67
2023-03-19T14:48:38.458Z,100270.70
2023-03-19T14:51:09.625Z,100276.00
2023-03-19T14:53:41.736Z,100272.33
2023-03-19T14:56:19.067Z,100261.84
2023-03-19T14:58:51.164Z,100255.99
2023-03-19T15:01:19.965Z,100255.35
2023-03-19T15:03:53.250Z,100261.80
2023-03-19T15:06:21.955Z,100262.19
2023-03-19T15:08:50.218Z,100261.63
2023-03-19T15:11:36.396Z,100258.96
2023-03-19T15:14:04.417Z,100257.12
2023-03-19T15:16:38.756Z,100258.70
2023-03-19T15:19:11.212Z,100260.98
2023-03-19T15:21:39.816Z,100260.57
2023-03-19T15:24:14.775Z,100257.89
2023-03-19T15:26:43.582Z,100258.36
2023-03-19T15:29:13.598Z,100255.17
2023-03-19T15:31:51.063Z,100254.21
2023-03-19T15:34:23.087Z,100253.40
2023-03-19T15:37:15.291Z,100254.09
2023-03-19T15:39:49.136Z,100255.66
2023-03-19T15:42:21.079Z,100254.45
2023-03-19T15:44:55.529Z,100256.05
2023-03-19T15:47:32.258Z,100257.16
2023-03-19T15:50:12.651Z,100263.16
2023-03-19T15:52:46.298Z,100262.73
2023-03-19T15:55:16.769Z,100258.38
2023-03-19T15:57:45.616Z,100255.24
2023-03-19T16:00:18.229Z,100260.54
2023-03-19T16:02:50.476Z,100264.82
2023-03-19T16:05:30.926Z,100269.92
2023-03-19T16:08:16.919Z,100272.25
2023-03-19T16:10:47.566Z,100276.16
2023-03-19T16:13:25.833Z,100274.35
2023-03-19T16:16:00.947Z,100276.72
2023-03-19T16:18:40.590Z,100276.63
2023-03-19T16:21:34.030Z,100277.44
2023-03-19T16:24:14.036Z,100277.40
2023-03-19T16:26:46.847Z,100283.30
2023-03-19T16:29:20.906Z,100286.39
2023-03-19T16:31:52.655Z,100291.05
2023-03-19T16:34:39.576Z,100290.45
2023-03-19T16:37:41.089Z,100293.72
2023-03-19T16:40:12.270Z,100297.89
2023-03-19T16:42:56.075Z,100303.96
2023-03-19T16:45:31.691Z,100302.25
2023-03-19T16:48:03.501Z,100308.46
2023-03-19T16:50:40.373Z,100309.94
2023-03-19T16:53:22.414Z,100306.38
2023-03-19T16:55:54.199Z,100308.74
2023-03-19T16:58:31.927Z,100305.15
2023-03-19T17:01:01.287Z,100305.54
2023-03-19T17:03:30.364Z,100308.00
2023-03-19T17:05:58.724Z,100313.93
2023-03-19T17:08:26.924Z,100319.67
2023-03-19T17:10:55.663Z,100316.93
2023-03-19T17:13:30.186Z,100314.01
2023-03-19T17:16:02.869Z,100314.02
2023-03-19T17:18:36.629Z,100314.55
2023-03-19T17:21:16.013Z,100314.72
2023-03-19T17:23:44.334Z,100314.02
2023-03-19T17:26:17.424Z,100315.91
2023-03-19T17:28:46.343Z,100317.80
2023-03-19T17:31:28.811Z,100315.89
2023-03-19T17:34:16.781Z,100314.30
2023-03-19T17:36:51.405Z,100318.60
2023-03-19T17:39:20.002Z,100323.21
2023-03-19T17:41:48.383Z,100320.04
2023-03-19T17:44:16.597Z,100317.74
2023-03-19T17:46:47.562Z,100319.41
2023-03-19T17:49:29.158Z,100324.20
2023-03-19T17:51:58.130Z,100321.56
2023-03-19T17:54:27.335Z,100320.48
2023-03-19T17:56:56.244Z,100319.90
2023-03-19T17:59:25.944Z,100317.08
2023-03-19T18:01:54.154Z,100316.83
2023-03-19T18:04:22.826Z,100310.89
2023-03-19T18:06:56.120Z,100309.94
2023-03-19T18:09:28.702Z,100306.42
2023-03-19T18:11:57.842Z,100303.27
2023-03-19T18:14:26.134Z,100302.02
2023-03-19T18:16:56.115Z,100301.78
2023-03-19T18:19:33.648Z,100305.38
2023-03-19T18:22:02.146Z,100299.98
2023-03-19T18:24:30.385Z,100303.02
2023-03-19T18:26:58.361Z,100305.92
2023-03-19T18:29:26.425Z,100305.02
2023-03-19T18:31:54.879Z,100307.39
2023-03-19T18:34:23.090Z,100305.94
2023-03-19T18:36:52.204Z,100308.83
2023-03-19T18:39:21.498Z,100306.73
2023-03-19T18:41:49.776Z,100308.91
2023-03-19T18:44:19.254Z,100309.20
2023-03-19T18:46:47.377Z,100307.41
2023-03-19T18:49:26.770Z,100309.95
2023-03-19T18:52:02.664Z,100308.71
2023-03-19T18:54:32.538Z,100310.55
2023-03-19T18:57:02.030Z,100306.73
2023-03-19T18:59:33.248Z,100309.80
2023-03-19T19:04:36.594Z,100309.56
2023-03-19T19:07:05.075Z,100312.11
2023-03-19T19:09:33.323Z,100311.91
2023-03-19T19:12:02.252Z,100311.71
2023-03-19T19:14:30.898Z,100313.58
2023-03-19T19:16:59.490Z,100312.33
2023-03-19T19:19:27.931Z,100312.28
2023-03-19T19:21:56.105Z,100313.44
2023-03-19T19:24:24.520Z,100310.13
2023-03-19T19:26:54.528Z,100309.36
2023-03-19T19:29:28.571Z,100312.23
2023-03-19T19:31:57.252Z,100310.63
2023-03-19T19:34:25.304Z,100309.55
2023-03-19T19:36:57.734Z,100309.67
2023-03-19T19:39:27.115Z,100310.66
2023-03-19T19:41:56.224Z,100314.74
2023-03-19T19:44:24.349Z,100309.00
2023-03-19T19:46:54.731Z,100310.31
2023-03-19T19:49:23.295Z,100309.36
2023-03-19T19:51:51.481Z,100313.93
2023-03-19T19:54:19.484Z,100318.81
2023-03-19T19:56:47.692Z,100318.35
2023-03-19T19:59:16.193Z,100320.13
2023-03-19T20:01:44.516Z,100319.19
2023-03-19T20:04:14.821Z,100316.22
2023-03-19T20:06:43.145Z,100310.70
2023-03-19T20:09:11.299Z,100314.08
2023-03-19T20:11:39.605Z,100318.23
2023-03-19T20:14:12.241Z,100313.63
2023-03-19T20:16:40.365Z,100312.80
2023-03-19T20:19:19.478Z,100309.04
2023-03-19T20:21:47.866Z,100312.67
2023-03-19T20:24:15.873Z,100313.73
2023-03-19T20:26:44.007Z,100313.91
2023-03-19T20:29:16.172Z,100313.59
2023-03-19T20:31:46.017Z,100312.40
2023-03-19T20:34:22.516Z,100309.37
2023-03-19T20:36:54.105Z,100311.67
2023-03-19T20:39:22.534Z,100310.30
2023-03-19T20:41:51.702Z,100309.25
2023-03-19T20:44:22.682Z,100307.57
2023-03-19T20:46:50.884Z,100308.30
2023-03-19T20:49:19.047Z,100303.88
2023-03-19T20:51:47.046Z,100299.89
2023-03-19T20:54:15.036Z,100301.79
2023-03-19T20:56:45.927Z,100302.85
2023-03-19T20:59:15.499Z,100305.29
2023-03-19T21:01:43.761Z,100307.87
2023-03-19T21:04:18.922Z,100304.98
2023-03-19T21:06:53.451Z,100304.88
2023-03-19T21:09:24.075Z,100302.55
2023-03-19T21:11:52.987Z,100307.96
2023-03-19T21:14:23.454Z,100308.34
2023-03-19T21:16:51.902Z,100306.64
2023-03-19T21:19:20.272Z,100306.13
2023-03-19T21:21:48.490Z,100307.69
2023-03-19T21:24:20.517Z,100310.48
2023-03-19T21:26:48.815Z,100313.63
2023-03-19T21:29:34.788Z,100310.55
2023-03-19T21:32:02.782Z,100305.58
2023-03-19T21:34:31.116Z,100304.71
2023-03-19T21:36:59.280Z,100307.02
2023-03-19T21:39:27.403Z,100303.27
2023-03-19T21:41:57.189Z,100300.98
2023-03-19T21:44:29.685Z,100302.30
2023-03-19T21:46:58.063Z,100298.00
2023-03-19T21:49:26.422Z,100296.05
2023-03-19T21:51:57.027Z,100294.42
2023-03-19T21:54:25.048Z,100294.13
2023-03-19T21:56:53.485Z,100291.40
2023-03-19T21:59:29.484Z,100296.02
2023-03-19T22:01:57.889Z,100304.27
2023-03-19T22:04:25.886Z,100299.54
2023-03-19T22:06:54.496Z,100292.11
2023-03-19T22:09:22.756Z,100293.96
2023-03-19T22:11:50.914Z,100295.14
2023-03-19T22:14:26.972Z,100296.09
2023-03-19T22:16:57.080Z,100295.48
2023-03-19T22:19:25.876Z,100294.56
2023-03-19T22:21:54.101Z,100295.05
2023-03-19T22:24:22.217Z,100293.13
2023-03-19T22:26:56.419Z,100293.78
2023-03-19T22:29:25.652Z,100288.64
2023-03-19T22:31:56.139Z,100287.31
2023-03-19T22:34:27.715Z,100290.94
2023-03-19T22:36:56.740Z,100286.80
2023-03-19T22:39:24.843Z,100286.73
2023-03-19T22:41:53.108Z,100285.43
2023-03-19T22:44:28.100Z,100282.56
2023-03-19T22:46:59.582Z,100284.23
2023-03-19T22:49:29.866Z,100284.98
2023-03-19T22:51:58.710Z,100285.71
2023-03-19T22:54:26.821Z,100284.97
2023-03-19T22:56:55.302Z,100284.42
2023-03-19T22:59:23.641Z,100290.56
2023-03-19T23:01:52.088Z,100293.24
2023-03-19T23:04:23.160Z,100295.26
2023-03-19T23:06:53.524Z,100291.86
2023-03-19T23:09:24.184Z,100291.77
2023-03-19T23:11:53.666Z,100291.18
2023-03-19T23:14:29.590Z,100288.56
2023-03-19T23:17:15.700Z,100288.00
2023-03-19T23:19:43.907Z,100285.20
2023-03-19T23:22:16.588Z,100284.79
2023-03-19T23:24:44.857Z,100283.94
2023-03-19T23:27:31.168Z,100277.98
2023-03-19T23:30:00.997Z,100280.63
2023-03-19T23:32:29.102Z,100279.55
2023-03-19T23:35:01.454Z,100277.95
2023-03-19T23:37:56.514Z,100275.16
2023-03-19T23:40:30.109Z,100273.55
2023-03-19T23:43:00.207Z,100268.55
2023-03-19T23:45:38.406Z,100267.73
2023-03-19T23:48:13.933Z,100265.39
2023-03-19T23:50:42.148Z,100261.32
2023-03-19T23:53:18.754Z,100263.28
2023-03-19T23:55:49.597Z,100263.70
2023-03-19T23:58:18.623Z,100261.23
